sensor_id;sensor_type;location;lat;lon;timestamp;temperature;humidity
16229;DHT22;8222;51.462;12.630;2022-10-31T00:01:21;15.50;99.90
16229;DHT22;8222;51.462;12.630;2022-10-31T00:03:47;15.50;99.90
16229;DHT22;8222;51.462;12.630;2022-10-31T00:06:13;15.40;99.90
16229;DHT22;8222;51.462;12.630;2022-10-31T00:08:39;15.40;99.90
16229;DHT22;8222;51.462;12.630;2022-10-31T00:11:08;15.30;99.90
16229;DHT22;8222;51.462;12.630;2022-10-31T00:13:34;15.20;99.90
16229;DHT22;8222;51.462;12.630;2022-10-31T00:16:00;15.20;99.90
16229;DHT22;8222;51.462;12.630;2022-10-31T00:18:26;15.20;99.90
16229;DHT22;8222;51.462;12.630;2022-10-31T00:21:00;15.20;99.90
16229;DHT22;8222;51.462;12.630;2022-10-31T00:23:26;15.20;99.90
16229;DHT22;8222;51.462;12.630;2022-10-31T00:25:52;15.20;99.90
16229;DHT22;8222;51.462;12.630;2022-10-31T00:28:17;15.50;99.90
16229;DHT22;8222;51.462;12.630;2022-10-31T00:30:43;15.20;99.90
16229;DHT22;8222;51.462;12.630;2022-10-31T00:33:09;15.10;99.90
16229;DHT22;8222;51.462;12.630;2022-10-31T00:35:36;15.30;99.90
16229;DHT22;8222;51.462;12.630;2022-10-31T00:38:01;15.00;99.90
16229;DHT22;8222;51.462;12.630;2022-10-31T00:40:27;15.00;99.90
16229;DHT22;8222;51.462;12.630;2022-10-31T00:42:53;15.00;99.90
16229;DHT22;8222;51.462;12.630;2022-10-31T00:45:20;15.00;99.90
16229;DHT22;8222;51.462;12.630;2022-10-31T00:47:46;15.00;99.90
16229;DHT22;8222;51.462;12.630;2022-10-31T00:50:11;15.00;99.90
16229;DHT22;8222;51.462;12.630;2022-10-31T00:52:37;15.10;99.90
16229;DHT22;8222;51.462;12.630;2022-10-31T00:55:04;15.10;99.90
16229;DHT22;8222;51.462;12.630;2022-10-31T00:57:30;15.10;99.90
16229;DHT22;8222;51.462;12.630;2022-10-31T00:59:56;15.10;99.90
16229;DHT22;8222;51.462;12.630;2022-10-31T01:02:21;15.00;99.90
16229;DHT22;8222;51.462;12.630;2022-10-31T01:04:47;15.10;99.90
16229;DHT22;8222;51.462;12.630;2022-10-31T01:07:13;15.00;99.90
16229;DHT22;8222;51.462;12.630;2022-10-31T01:09:39;15.70;99.90
16229;DHT22;8222;51.462;12.630;2022-10-31T01:12:05;14.90;99.90
16229;DHT22;8222;51.462;12.630;2022-10-31T01:14:30;14.90;99.90
16229;DHT22;8222;51.462;12.630;2022-10-31T01:16:56;14.90;99.90
16229;DHT22;8222;51.462;12.630;2022-10-31T01:19:22;14.90;99.90
16229;DHT22;8222;51.462;12.630;2022-10-31T01:21:47;14.90;99.90
16229;DHT22;8222;51.462;12.630;2022-10-31T01:24:13;14.90;99.90
16229;DHT22;8222;51.462;12.630;2022-10-31T01:26:39;14.90;99.90
16229;DHT22;8222;51.462;12.630;2022-10-31T01:29:06;14.90;99.90
16229;DHT22;8222;51.462;12.630;2022-10-31T01:31:36;14.90;99.90
16229;DHT22;8222;51.462;12.630;2022-10-31T01:34:04;15.00;99.90
16229;DHT22;8222;51.462;12.630;2022-10-31T01:36:31;14.80;99.90
16229;DHT22;8222;51.462;12.630;2022-10-31T01:39:02;15.00;99.90
16229;DHT22;8222;51.462;12.630;2022-10-31T01:41:30;15.00;99.90
16229;DHT22;8222;51.462;12.630;2022-10-31T01:46:45;15.00;99.90
16229;DHT22;8222;51.462;12.630;2022-10-31T01:49:23;15.00;99.90
16229;DHT22;8222;51.462;12.630;2022-10-31T01:51:55;15.10;99.90
16229;DHT22;8222;51.462;12.630;2022-10-31T01:54:24;14.90;99.90
16229;DHT22;8222;51.462;12.630;2022-10-31T01:56:53;15.00;99.90
16229;DHT22;8222;51.462;12.630;2022-10-31T01:59:21;15.00;99.90
16229;DHT22;8222;51.462;12.630;2022-10-31T02:01:50;15.10;99.90
16229;DHT22;8222;51.462;12.630;2022-10-31T02:04:16;15.10;99.90
16229;DHT22;8222;51.462;12.630;2022-10-31T02:07:03;15.20;99.90
16229;DHT22;8222;51.462;12.630;2022-10-31T02:09:31;15.20;99.90
16229;DHT22;8222;51.462;12.630;2022-10-31T02:11:59;15.30;99.90
16229;DHT22;8222;51.462;12.630;2022-10-31T02:14:27;15.30;99.90
16229;DHT22;8222;51.462;12.630;2022-10-31T02:16:56;15.40;99.90
16229;DHT22;8222;51.462;12.630;2022-10-31T02:25:31;15.40;99.90
16229;DHT22;8222;51.462;12.630;2022-10-31T02:34:10;15.40;99.90
16229;DHT22;8222;51.462;12.630;2022-10-31T02:36:43;15.40;99.90
16229;DHT22;8222;51.462;12.630;2022-10-31T02:39:28;15.40;99.90
16229;DHT22;8222;51.462;12.630;2022-10-31T02:42:15;15.40;99.90
16229;DHT22;8222;51.462;12.630;2022-10-31T02:44:58;15.20;99.90
16229;DHT22;8222;51.462;12.630;2022-10-31T02:47:28;15.10;99.90
16229;DHT22;8222;51.462;12.630;2022-10-31T02:50:02;15.80;99.90
16229;DHT22;8222;51.462;12.630;2022-10-31T02:52:31;14.80;99.90
16229;DHT22;8222;51.462;12.630;2022-10-31T02:54:58;14.80;99.90
16229;DHT22;8222;51.462;12.630;2022-10-31T02:57:31;14.70;99.90
16229;DHT22;8222;51.462;12.630;2022-10-31T03:00:04;14.70;99.90
16229;DHT22;8222;51.462;12.630;2022-10-31T03:02:52;14.60;99.90
16229;DHT22;8222;51.462;12.630;2022-10-31T03:08:08;14.50;99.90
16229;DHT22;8222;51.462;12.630;2022-10-31T03:10:56;14.40;99.90
16229;DHT22;8222;51.462;12.630;2022-10-31T03:13:45;14.40;99.90
16229;DHT22;8222;51.462;12.630;2022-10-31T03:16:36;14.30;99.90
16229;DHT22;8222;51.462;12.630;2022-10-31T03:19:06;14.20;99.90
16229;DHT22;8222;51.462;12.630;2022-10-31T03:24:35;14.20;99.90
16229;DHT22;8222;51.462;12.630;2022-10-31T03:27:05;14.20;99.90
16229;DHT22;8222;51.462;12.630;2022-10-31T03:29:35;14.10;99.90
16229;DHT22;8222;51.462;12.630;2022-10-31T03:32:16;14.10;99.90
16229;DHT22;8222;51.462;12.630;2022-10-31T03:34:43;14.10;99.90
16229;DHT22;8222;51.462;12.630;2022-10-31T03:37:15;14.10;99.90
16229;DHT22;8222;51.462;12.630;2022-10-31T03:39:44;14.10;99.90
16229;DHT22;8222;51.462;12.630;2022-10-31T03:42:17;14.00;99.90
16229;DHT22;8222;51.462;12.630;2022-10-31T03:44:49;14.00;99.90
16229;DHT22;8222;51.462;12.630;2022-10-31T03:47:17;13.90;99.90
16229;DHT22;8222;51.462;12.630;2022-10-31T03:49:42;13.90;99.90
16229;DHT22;8222;51.462;12.630;2022-10-31T03:52:20;13.90;99.90
16229;DHT22;8222;51.462;12.630;2022-10-31T03:54:54;13.90;99.90
16229;DHT22;8222;51.462;12.630;2022-10-31T04:00:09;13.90;99.90
16229;DHT22;8222;51.462;12.630;2022-10-31T04:02:40;13.70;99.90
16229;DHT22;8222;51.462;12.630;2022-10-31T04:05:08;13.80;99.90
16229;DHT22;8222;51.462;12.630;2022-10-31T04:07:38;13.80;99.90
16229;DHT22;8222;51.462;12.630;2022-10-31T04:10:07;13.70;99.90
16229;DHT22;8222;51.462;12.630;2022-10-31T04:12:35;13.60;99.90
16229;DHT22;8222;51.462;12.630;2022-10-31T04:15:04;13.60;99.90
16229;DHT22;8222;51.462;12.630;2022-10-31T04:17:35;13.60;99.90
16229;DHT22;8222;51.462;12.630;2022-10-31T04:20:02;13.60;99.90
16229;DHT22;8222;51.462;12.630;2022-10-31T04:22:28;13.60;99.90
16229;DHT22;8222;51.462;12.630;2022-10-31T04:24:54;13.50;99.90
16229;DHT22;8222;51.462;12.630;2022-10-31T04:27:20;13.50;99.90
16229;DHT22;8222;51.462;12.630;2022-10-31T04:29:45;13.50;99.90
16229;DHT22;8222;51.462;12.630;2022-10-31T04:32:13;13.30;99.90
16229;DHT22;8222;51.462;12.630;2022-10-31T04:34:39;13.30;99.90
16229;DHT22;8222;51.462;12.630;2022-10-31T04:37:06;13.30;99.90
16229;DHT22;8222;51.462;12.630;2022-10-31T04:39:32;13.30;99.90
16229;DHT22;8222;51.462;12.630;2022-10-31T04:41:57;13.30;99.90
16229;DHT22;8222;51.462;12.630;2022-10-31T04:44:23;13.20;99.90
16229;DHT22;8222;51.462;12.630;2022-10-31T04:46:49;13.30;99.90
16229;DHT22;8222;51.462;12.630;2022-10-31T04:49:14;13.20;99.90
16229;DHT22;8222;51.462;12.630;2022-10-31T04:51:40;13.30;99.90
16229;DHT22;8222;51.462;12.630;2022-10-31T04:54:07;13.20;99.90
16229;DHT22;8222;51.462;12.630;2022-10-31T04:56:33;13.00;99.90
16229;DHT22;8222;51.462;12.630;2022-10-31T04:58:59;13.00;99.90
16229;DHT22;8222;51.462;12.630;2022-10-31T05:01:24;13.00;99.90
16229;DHT22;8222;51.462;12.630;2022-10-31T05:03:50;13.00;99.90
16229;DHT22;8222;51.462;12.630;2022-10-31T05:06:16;13.00;99.90
16229;DHT22;8222;51.462;12.630;2022-10-31T05:08:43;13.00;99.90
16229;DHT22;8222;51.462;12.630;2022-10-31T05:11:09;13.00;99.90
16229;DHT22;8222;51.462;12.630;2022-10-31T05:13:35;13.00;99.90
16229;DHT22;8222;51.462;12.630;2022-10-31T05:16:00;12.90;99.90
16229;DHT22;8222;51.462;12.630;2022-10-31T05:18:28;12.70;99.90
16229;DHT22;8222;51.462;12.630;2022-10-31T05:20:54;12.80;99.90
16229;DHT22;8222;51.462;12.630;2022-10-31T05:23:19;12.80;99.90
16229;DHT22;8222;51.462;12.630;2022-10-31T05:25:45;12.80;99.90
16229;DHT22;8222;51.462;12.630;2022-10-31T05:28:11;12.70;99.90
16229;DHT22;8222;51.462;12.630;2022-10-31T05:30:38;12.70;99.90
16229;DHT22;8222;51.462;12.630;2022-10-31T05:33:04;12.60;99.90
16229;DHT22;8222;51.462;12.630;2022-10-31T05:35:31;12.60;99.90
16229;DHT22;8222;51.462;12.630;2022-10-31T05:37:57;12.60;99.90
16229;DHT22;8222;51.462;12.630;2022-10-31T05:40:24;12.60;99.90
16229;DHT22;8222;51.462;12.630;2022-10-31T05:42:51;12.60;99.90
16229;DHT22;8222;51.462;12.630;2022-10-31T05:45:18;12.50;99.90
16229;DHT22;8222;51.462;12.630;2022-10-31T05:47:58;12.60;99.90
16229;DHT22;8222;51.462;12.630;2022-10-31T05:50:25;12.60;99.90
16229;DHT22;8222;51.462;12.630;2022-10-31T05:53:03;13.00;99.90
16229;DHT22;8222;51.462;12.630;2022-10-31T05:55:30;14.30;99.90
16229;DHT22;8222;51.462;12.630;2022-10-31T05:57:56;12.80;99.90
16229;DHT22;8222;51.462;12.630;2022-10-31T06:00:22;12.60;99.90
16229;DHT22;8222;51.462;12.630;2022-10-31T06:02:48;12.60;99.90
16229;DHT22;8222;51.462;12.630;2022-10-31T06:05:14;12.60;99.90
16229;DHT22;8222;51.462;12.630;2022-10-31T06:07:40;12.60;99.90
16229;DHT22;8222;51.462;12.630;2022-10-31T06:10:07;12.60;99.90
16229;DHT22;8222;51.462;12.630;2022-10-31T06:12:35;12.60;99.90
16229;DHT22;8222;51.462;12.630;2022-10-31T06:15:06;12.50;99.90
16229;DHT22;8222;51.462;12.630;2022-10-31T06:17:35;12.60;99.90
16229;DHT22;8222;51.462;12.630;2022-10-31T06:20:01;12.60;99.90
16229;DHT22;8222;51.462;12.630;2022-10-31T06:22:27;12.50;99.90
16229;DHT22;8222;51.462;12.630;2022-10-31T06:24:53;12.60;99.90
16229;DHT22;8222;51.462;12.630;2022-10-31T06:27:19;12.70;99.90
16229;DHT22;8222;51.462;12.630;2022-10-31T06:29:46;12.80;99.90
16229;DHT22;8222;51.462;12.630;2022-10-31T06:32:12;12.70;99.90
16229;DHT22;8222;51.462;12.630;2022-10-31T06:34:40;12.70;99.90
16229;DHT22;8222;51.462;12.630;2022-10-31T06:37:10;12.70;99.90
16229;DHT22;8222;51.462;12.630;2022-10-31T06:39:36;12.80;99.90
16229;DHT22;8222;51.462;12.630;2022-10-31T06:42:02;12.80;99.90
16229;DHT22;8222;51.462;12.630;2022-10-31T06:44:28;12.90;99.90
16229;DHT22;8222;51.462;12.630;2022-10-31T06:46:54;13.00;99.90
16229;DHT22;8222;51.462;12.630;2022-10-31T06:49:19;13.10;99.90
16229;DHT22;8222;51.462;12.630;2022-10-31T06:51:49;13.20;99.90
16229;DHT22;8222;51.462;12.630;2022-10-31T06:54:15;13.20;99.90
16229;DHT22;8222;51.462;12.630;2022-10-31T06:56:40;13.10;99.90
16229;DHT22;8222;51.462;12.630;2022-10-31T06:59:06;13.30;99.90
16229;DHT22;8222;51.462;12.630;2022-10-31T07:01:32;13.40;99.90
16229;DHT22;8222;51.462;12.630;2022-10-31T07:03:57;13.40;99.90
16229;DHT22;8222;51.462;12.630;2022-10-31T07:06:23;13.50;99.90
16229;DHT22;8222;51.462;12.630;2022-10-31T07:08:49;13.60;99.90
16229;DHT22;8222;51.462;12.630;2022-10-31T07:11:14;14.20;99.90
16229;DHT22;8222;51.462;12.630;2022-10-31T07:13:40;13.70;99.90
16229;DHT22;8222;51.462;12.630;2022-10-31T07:16:07;13.90;99.90
16229;DHT22;8222;51.462;12.630;2022-10-31T07:18:35;14.00;99.90
16229;DHT22;8222;51.462;12.630;2022-10-31T07:21:00;14.10;99.90
16229;DHT22;8222;51.462;12.630;2022-10-31T07:23:28;14.10;99.90
16229;DHT22;8222;51.462;12.630;2022-10-31T07:25:57;14.30;99.90
16229;DHT22;8222;51.462;12.630;2022-10-31T07:28:25;14.50;99.90
16229;DHT22;8222;51.462;12.630;2022-10-31T07:30:56;14.70;99.90
16229;DHT22;8222;51.462;12.630;2022-10-31T07:33:23;14.80;99.90
16229;DHT22;8222;51.462;12.630;2022-10-31T07:35:51;15.10;99.90
16229;DHT22;8222;51.462;12.630;2022-10-31T07:38:16;15.20;99.90
16229;DHT22;8222;51.462;12.630;2022-10-31T07:40:42;15.40;99.90
16229;DHT22;8222;51.462;12.630;2022-10-31T07:43:10;15.50;99.90
16229;DHT22;8222;51.462;12.630;2022-10-31T07:45:36;15.70;99.90
16229;DHT22;8222;51.462;12.630;2022-10-31T07:48:02;15.60;99.90
16229;DHT22;8222;51.462;12.630;2022-10-31T07:50:29;15.80;99.90
16229;DHT22;8222;51.462;12.630;2022-10-31T07:53:14;15.80;99.90
16229;DHT22;8222;51.462;12.630;2022-10-31T07:55:40;16.00;99.90
16229;DHT22;8222;51.462;12.630;2022-10-31T07:58:09;16.20;99.90
16229;DHT22;8222;51.462;12.630;2022-10-31T08:00:36;16.30;99.90
16229;DHT22;8222;51.462;12.630;2022-10-31T08:03:03;16.50;99.90
16229;DHT22;8222;51.462;12.630;2022-10-31T08:05:30;16.70;99.90
16229;DHT22;8222;51.462;12.630;2022-10-31T08:07:56;16.80;99.90
16229;DHT22;8222;51.462;12.630;2022-10-31T08:10:22;17.00;99.90
16229;DHT22;8222;51.462;12.630;2022-10-31T08:12:55;17.10;99.90
16229;DHT22;8222;51.462;12.630;2022-10-31T08:15:21;17.30;99.90
16229;DHT22;8222;51.462;12.630;2022-10-31T08:17:47;17.40;99.90
16229;DHT22;8222;51.462;12.630;2022-10-31T08:20:13;17.50;99.90
16229;DHT22;8222;51.462;12.630;2022-10-31T08:22:38;17.60;99.90
16229;DHT22;8222;51.462;12.630;2022-10-31T08:25:05;17.70;99.90
16229;DHT22;8222;51.462;12.630;2022-10-31T08:27:31;17.80;99.90
16229;DHT22;8222;51.462;12.630;2022-10-31T08:29:57;17.90;99.90
16229;DHT22;8222;51.462;12.630;2022-10-31T08:32:23;18.10;99.90
16229;DHT22;8222;51.462;12.630;2022-10-31T08:34:49;18.10;99.90
16229;DHT22;8222;51.462;12.630;2022-10-31T08:37:15;18.10;99.90
16229;DHT22;8222;51.462;12.630;2022-10-31T08:39:46;18.20;99.90
16229;DHT22;8222;51.462;12.630;2022-10-31T08:42:12;18.20;99.90
16229;DHT22;8222;51.462;12.630;2022-10-31T08:44:38;18.30;99.90
16229;DHT22;8222;51.462;12.630;2022-10-31T08:47:03;18.30;99.90
16229;DHT22;8222;51.462;12.630;2022-10-31T08:49:29;18.50;99.90
16229;DHT22;8222;51.462;12.630;2022-10-31T08:51:55;18.70;99.90
16229;DHT22;8222;51.462;12.630;2022-10-31T08:54:20;18.70;99.90
16229;DHT22;8222;51.462;12.630;2022-10-31T08:56:48;18.60;99.90
16229;DHT22;8222;51.462;12.630;2022-10-31T08:59:18;18.70;99.90
16229;DHT22;8222;51.462;12.630;2022-10-31T09:01:45;18.70;99.90
16229;DHT22;8222;51.462;12.630;2022-10-31T09:04:10;18.70;99.90
16229;DHT22;8222;51.462;12.630;2022-10-31T09:06:36;18.70;99.90
16229;DHT22;8222;51.462;12.630;2022-10-31T09:09:02;18.60;99.90
16229;DHT22;8222;51.462;12.630;2022-10-31T09:11:30;18.60;99.90
16229;DHT22;8222;51.462;12.630;2022-10-31T09:13:56;18.60;99.90
16229;DHT22;8222;51.462;12.630;2022-10-31T09:16:21;18.80;99.90
16229;DHT22;8222;51.462;12.630;2022-10-31T09:18:49;18.90;99.90
16229;DHT22;8222;51.462;12.630;2022-10-31T09:21:14;19.00;99.90
16229;DHT22;8222;51.462;12.630;2022-10-31T09:23:40;18.90;99.90
16229;DHT22;8222;51.462;12.630;2022-10-31T09:26:06;18.80;99.90
16229;DHT22;8222;51.462;12.630;2022-10-31T09:28:33;18.70;99.90
16229;DHT22;8222;51.462;12.630;2022-10-31T09:31:00;18.60;99.90
16229;DHT22;8222;51.462;12.630;2022-10-31T09:33:26;18.70;99.90
16229;DHT22;8222;51.462;12.630;2022-10-31T09:35:52;18.70;99.90
16229;DHT22;8222;51.462;12.630;2022-10-31T09:38:19;18.70;99.90
16229;DHT22;8222;51.462;12.630;2022-10-31T09:40:55;18.70;99.90
16229;DHT22;8222;51.462;12.630;2022-10-31T09:52:18;19.00;99.90
16229;DHT22;8222;51.462;12.630;2022-10-31T09:55:25;18.90;99.90
16229;DHT22;8222;51.462;12.630;2022-10-31T09:57:52;18.70;99.90
16229;DHT22;8222;51.462;12.630;2022-10-31T10:00:20;18.70;99.90
16229;DHT22;8222;51.462;12.630;2022-10-31T10:02:53;18.80;99.90
16229;DHT22;8222;51.462;12.630;2022-10-31T10:08:18;18.60;99.90
16229;DHT22;8222;51.462;12.630;2022-10-31T10:13:41;18.50;99.90
16229;DHT22;8222;51.462;12.630;2022-10-31T10:30:04;19.10;99.90
16229;DHT22;8222;51.462;12.630;2022-10-31T10:32:57;19.00;99.90
16229;DHT22;8222;51.462;12.630;2022-10-31T10:35:35;19.20;99.90
16229;DHT22;8222;51.462;12.630;2022-10-31T10:40:44;19.50;99.90
16229;DHT22;8222;51.462;12.630;2022-10-31T10:43:24;19.70;99.90
16229;DHT22;8222;51.462;12.630;2022-10-31T10:51:20;19.80;99.90
16229;DHT22;8222;51.462;12.630;2022-10-31T10:54:08;19.90;99.90
16229;DHT22;8222;51.462;12.630;2022-10-31T10:59:23;20.10;99.90
16229;DHT22;8222;51.462;12.630;2022-10-31T11:01:51;20.20;99.90
16229;DHT22;8222;51.462;12.630;2022-10-31T11:04:35;20.00;99.90
16229;DHT22;8222;51.462;12.630;2022-10-31T11:07:09;19.90;99.90
16229;DHT22;8222;51.462;12.630;2022-10-31T11:09:35;19.90;99.90
16229;DHT22;8222;51.462;12.630;2022-10-31T11:12:15;19.90;99.90
16229;DHT22;8222;51.462;12.630;2022-10-31T11:14:50;19.90;99.90
16229;DHT22;8222;51.462;12.630;2022-10-31T11:17:39;20.00;99.90
16229;DHT22;8222;51.462;12.630;2022-10-31T11:20:28;20.20;99.90
16229;DHT22;8222;51.462;12.630;2022-10-31T11:23:17;20.40;99.90
16229;DHT22;8222;51.462;12.630;2022-10-31T11:25:52;20.40;99.90
16229;DHT22;8222;51.462;12.630;2022-10-31T11:28:19;20.60;99.90
16229;DHT22;8222;51.462;12.630;2022-10-31T11:30:48;20.60;99.90
16229;DHT22;8222;51.462;12.630;2022-10-31T11:33:26;20.60;99.90
16229;DHT22;8222;51.462;12.630;2022-10-31T11:35:53;20.70;99.90
16229;DHT22;8222;51.462;12.630;2022-10-31T11:38:21;20.80;99.90
16229;DHT22;8222;51.462;12.630;2022-10-31T11:41:05;20.80;99.90
16229;DHT22;8222;51.462;12.630;2022-10-31T11:43:34;20.80;99.90
16229;DHT22;8222;51.462;12.630;2022-10-31T11:46:11;21.00;99.90
16229;DHT22;8222;51.462;12.630;2022-10-31T11:48:37;21.10;99.90
16229;DHT22;8222;51.462;12.630;2022-10-31T11:51:04;21.20;99.90
16229;DHT22;8222;51.462;12.630;2022-10-31T11:53:33;21.30;99.90
16229;DHT22;8222;51.462;12.630;2022-10-31T11:58:27;21.20;99.90
16229;DHT22;8222;51.462;12.630;2022-10-31T12:00:55;21.40;99.90
16229;DHT22;8222;51.462;12.630;2022-10-31T12:08:17;21.50;99.90
16229;DHT22;8222;51.462;12.630;2022-10-31T12:19:06;21.60;99.90
16229;DHT22;8222;51.462;12.630;2022-10-31T12:22:01;21.60;99.90
16229;DHT22;8222;51.462;12.630;2022-10-31T12:24:50;21.60;99.90
16229;DHT22;8222;51.462;12.630;2022-10-31T12:27:42;21.50;99.90
16229;DHT22;8222;51.462;12.630;2022-10-31T12:30:21;21.50;99.90
16229;DHT22;8222;51.462;12.630;2022-10-31T12:33:22;21.50;99.90
16229;DHT22;8222;51.462;12.630;2022-10-31T12:35:55;21.40;99.90
16229;DHT22;8222;51.462;12.630;2022-10-31T12:47:25;21.20;99.90
16229;DHT22;8222;51.462;12.630;2022-10-31T12:50:28;21.20;99.90
16229;DHT22;8222;51.462;12.630;2022-10-31T12:53:21;21.20;99.90
16229;DHT22;8222;51.462;12.630;2022-10-31T12:59:03;20.90;99.90
16229;DHT22;8222;51.462;12.630;2022-10-31T13:01:35;20.80;99.90
16229;DHT22;8222;51.462;12.630;2022-10-31T13:04:13;21.00;99.90
16229;DHT22;8222;51.462;12.630;2022-10-31T13:06:48;21.00;99.90
16229;DHT22;8222;51.462;12.630;2022-10-31T13:09:25;21.00;99.90
16229;DHT22;8222;51.462;12.630;2022-10-31T13:12:00;21.20;99.90
16229;DHT22;8222;51.462;12.630;2022-10-31T13:14:35;21.20;99.90
16229;DHT22;8222;51.462;12.630;2022-10-31T13:17:02;21.20;99.90
16229;DHT22;8222;51.462;12.630;2022-10-31T13:19:39;21.30;99.90
16229;DHT22;8222;51.462;12.630;2022-10-31T13:22:13;21.10;99.90
16229;DHT22;8222;51.462;12.630;2022-10-31T13:27:30;20.80;99.90
16229;DHT22;8222;51.462;12.630;2022-10-31T13:30:12;20.80;99.90
16229;DHT22;8222;51.462;12.630;2022-10-31T13:33:04;20.80;99.90
16229;DHT22;8222;51.462;12.630;2022-10-31T13:35:41;20.80;99.90
16229;DHT22;8222;51.462;12.630;2022-10-31T13:38:38;20.80;99.90
16229;DHT22;8222;51.462;12.630;2022-10-31T13:44:12;20.70;99.90
16229;DHT22;8222;51.462;12.630;2022-10-31T13:46:40;20.70;99.90
16229;DHT22;8222;51.462;12.630;2022-10-31T13:54:38;20.50;99.90
16229;DHT22;8222;51.462;12.630;2022-10-31T14:00:27;20.40;99.90
16229;DHT22;8222;51.462;12.630;2022-10-31T14:02:56;20.40;99.90
16229;DHT22;8222;51.462;12.630;2022-10-31T14:05:34;20.40;99.90
16229;DHT22;8222;51.462;12.630;2022-10-31T14:08:03;20.50;99.90
16229;DHT22;8222;51.462;12.630;2022-10-31T14:10:33;20.40;99.90
16229;DHT22;8222;51.462;12.630;2022-10-31T14:15:43;20.30;99.90
16229;DHT22;8222;51.462;12.630;2022-10-31T14:18:23;20.30;99.90
16229;DHT22;8222;51.462;12.630;2022-10-31T14:20:49;20.10;99.90
16229;DHT22;8222;51.462;12.630;2022-10-31T14:23:37;20.10;99.90
16229;DHT22;8222;51.462;12.630;2022-10-31T14:28:47;20.00;99.90
16229;DHT22;8222;51.462;12.630;2022-10-31T14:44:44;19.90;99.90
16229;DHT22;8222;51.462;12.630;2022-10-31T14:47:53;19.90;99.90
16229;DHT22;8222;51.462;12.630;2022-10-31T14:53:29;19.80;99.90
16229;DHT22;8222;51.462;12.630;2022-10-31T14:55:56;19.70;99.90
16229;DHT22;8222;51.462;12.630;2022-10-31T15:00:56;19.40;99.90
16229;DHT22;8222;51.462;12.630;2022-10-31T15:05:53;19.30;99.90
16229;DHT22;8222;51.462;12.630;2022-10-31T15:08:32;19.10;99.90
16229;DHT22;8222;51.462;12.630;2022-10-31T15:10:58;19.00;99.90
16229;DHT22;8222;51.462;12.630;2022-10-31T15:13:27;19.00;99.90
16229;DHT22;8222;51.462;12.630;2022-10-31T15:15:54;19.00;99.90
16229;DHT22;8222;51.462;12.630;2022-10-31T15:18:24;18.90;99.90
16229;DHT22;8222;51.462;12.630;2022-10-31T15:20:51;18.90;99.90
16229;DHT22;8222;51.462;12.630;2022-10-31T15:23:24;18.80;99.90
16229;DHT22;8222;51.462;12.630;2022-10-31T15:25:50;18.70;99.90
16229;DHT22;8222;51.462;12.630;2022-10-31T15:28:24;18.50;99.90
16229;DHT22;8222;51.462;12.630;2022-10-31T15:31:01;18.50;99.90
16229;DHT22;8222;51.462;12.630;2022-10-31T15:33:48;18.40;99.90
16229;DHT22;8222;51.462;12.630;2022-10-31T15:36:23;18.40;99.90
16229;DHT22;8222;51.462;12.630;2022-10-31T15:38:49;18.30;99.90
16229;DHT22;8222;51.462;12.630;2022-10-31T15:41:35;18.20;99.90
16229;DHT22;8222;51.462;12.630;2022-10-31T15:44:14;18.10;99.90
16229;DHT22;8222;51.462;12.630;2022-10-31T15:46:40;18.00;99.90
16229;DHT22;8222;51.462;12.630;2022-10-31T15:49:21;17.90;99.90
16229;DHT22;8222;51.462;12.630;2022-10-31T15:51:51;17.80;99.90
16229;DHT22;8222;51.462;12.630;2022-10-31T15:54:17;17.70;99.90
16229;DHT22;8222;51.462;12.630;2022-10-31T15:56:43;17.70;99.90
16229;DHT22;8222;51.462;12.630;2022-10-31T15:59:19;17.60;99.90
16229;DHT22;8222;51.462;12.630;2022-10-31T16:01:59;17.60;99.90
16229;DHT22;8222;51.462;12.630;2022-10-31T16:04:25;17.50;99.90
16229;DHT22;8222;51.462;12.630;2022-10-31T16:07:18;17.60;99.90
16229;DHT22;8222;51.462;12.630;2022-10-31T16:09:51;17.50;99.90
16229;DHT22;8222;51.462;12.630;2022-10-31T16:12:17;17.50;99.90
16229;DHT22;8222;51.462;12.630;2022-10-31T16:14:43;17.50;99.90
16229;DHT22;8222;51.462;12.630;2022-10-31T16:17:17;17.40;99.90
16229;DHT22;8222;51.462;12.630;2022-10-31T16:20:01;17.40;99.90
16229;DHT22;8222;51.462;12.630;2022-10-31T16:22:34;17.30;99.90
16229;DHT22;8222;51.462;12.630;2022-10-31T16:25:12;17.10;99.90
16229;DHT22;8222;51.462;12.630;2022-10-31T16:27:39;17.10;99.90
16229;DHT22;8222;51.462;12.630;2022-10-31T16:30:29;17.10;99.90
16229;DHT22;8222;51.462;12.630;2022-10-31T16:32:57;17.10;99.90
16229;DHT22;8222;51.462;12.630;2022-10-31T16:35:28;17.00;99.90
16229;DHT22;8222;51.462;12.630;2022-10-31T16:37:56;17.10;99.90
16229;DHT22;8222;51.462;12.630;2022-10-31T16:40:23;17.00;99.90
16229;DHT22;8222;51.462;12.630;2022-10-31T16:42:49;17.10;99.90
16229;DHT22;8222;51.462;12.630;2022-10-31T16:47:42;17.00;99.90
16229;DHT22;8222;51.462;12.630;2022-10-31T16:50:23;16.80;99.90
16229;DHT22;8222;51.462;12.630;2022-10-31T16:52:50;16.80;99.90
16229;DHT22;8222;51.462;12.630;2022-10-31T16:55:19;16.70;99.90
16229;DHT22;8222;51.462;12.630;2022-10-31T16:57:51;16.80;99.90
16229;DHT22;8222;51.462;12.630;2022-10-31T17:00:19;16.70;99.90
16229;DHT22;8222;51.462;12.630;2022-10-31T17:02:47;16.70;99.90
16229;DHT22;8222;51.462;12.630;2022-10-31T17:05:16;16.70;99.90
16229;DHT22;8222;51.462;12.630;2022-10-31T17:07:42;16.70;99.90
16229;DHT22;8222;51.462;12.630;2022-10-31T17:10:09;16.50;99.90
16229;DHT22;8222;51.462;12.630;2022-10-31T17:12:36;16.50;99.90
16229;DHT22;8222;51.462;12.630;2022-10-31T17:15:03;16.40;99.90
16229;DHT22;8222;51.462;12.630;2022-10-31T17:17:29;16.40;99.90
16229;DHT22;8222;51.462;12.630;2022-10-31T17:19:55;16.30;99.90
16229;DHT22;8222;51.462;12.630;2022-10-31T17:22:21;16.20;99.90
16229;DHT22;8222;51.462;12.630;2022-10-31T17:24:46;16.20;99.90
16229;DHT22;8222;51.462;12.630;2022-10-31T17:27:12;16.20;99.90
16229;DHT22;8222;51.462;12.630;2022-10-31T17:29:38;16.30;99.90
16229;DHT22;8222;51.462;12.630;2022-10-31T17:32:04;16.20;99.90
16229;DHT22;8222;51.462;12.630;2022-10-31T17:34:31;16.10;99.90
16229;DHT22;8222;51.462;12.630;2022-10-31T17:36:57;16.30;99.90
16229;DHT22;8222;51.462;12.630;2022-10-31T17:39:23;16.30;99.90
16229;DHT22;8222;51.462;12.630;2022-10-31T17:41:54;16.40;99.90
16229;DHT22;8222;51.462;12.630;2022-10-31T17:44:22;16.30;99.90
16229;DHT22;8222;51.462;12.630;2022-10-31T17:46:47;16.40;99.90
16229;DHT22;8222;51.462;12.630;2022-10-31T17:49:15;16.30;99.90
16229;DHT22;8222;51.462;12.630;2022-10-31T17:51:40;16.40;99.90
16229;DHT22;8222;51.462;12.630;2022-10-31T17:54:07;16.30;99.90
16229;DHT22;8222;51.462;12.630;2022-10-31T17:56:33;16.30;99.90
16229;DHT22;8222;51.462;12.630;2022-10-31T17:58:59;16.30;99.90
16229;DHT22;8222;51.462;12.630;2022-10-31T18:01:27;16.30;99.90
16229;DHT22;8222;51.462;12.630;2022-10-31T18:03:52;16.20;99.90